Time;durP1;ratioP1;P1;durP2;ratioP2;P2;SDS_P1;SDS_P2;PMS_P1;PMS_P2;Temp;Humidity;BMP_temperature;BMP_pressure;BME280_temperature;BME280_humidity;BME280_pressure;Samples;Min_cycle;Max_cycle;Signal;HPM_P1;HPM_P2
2023/03/11 00:01:39;;;;;;;9.55;7.38;;;;;;;0.24;100.00;-18033.81;5041816;28;20049;-83
2023/03/11 00:04:05;;;;;;;8.27;6.57;;;;;;;0.22;100.00;-18033.41;5065433;28;20415;-83
2023/03/11 00:06:31;;;;;;;11.43;7.22;;;;;;;0.23;100.00;-18033.53;5042094;28;20036;-82
2023/03/11 00:08:56;;;;;;;10.00;6.80;;;;;;;0.22;100.00;-18033.28;5044644;28;20057;-85
2023/03/11 00:11:21;;;;;;;8.15;6.82;;;;;;;0.21;100.00;-18033.00;5047538;28;20037;-84
2023/03/11 00:13:46;;;;;;;11.20;7.22;;;;;;;0.18;100.00;-18032.16;5042759;28;20041;-84
2023/03/11 00:16:12;;;;;;;9.93;6.90;;;;;;;0.15;100.00;-18031.47;5041639;28;20110;-84
2023/03/11 00:18:37;;;;;;;11.73;7.35;;;;;;;0.14;100.00;-18031.19;5042778;28;20528;-85
2023/03/11 00:21:03;;;;;;;10.95;6.75;;;;;;;0.13;100.00;-18030.91;5048800;28;20032;-83
2023/03/11 00:23:28;;;;;;;10.38;5.97;;;;;;;0.11;100.00;-18030.34;5046769;28;20040;-85
2023/03/11 00:25:54;;;;;;;11.00;6.85;;;;;;;0.12;100.00;-18030.63;5054370;28;20571;-83
2023/03/11 00:28:24;;;;;;;9.50;7.07;;;;;;;0.14;100.00;-18031.06;5044080;28;20114;-84
2023/03/11 00:30:49;;;;;;;6.68;4.60;;;;;;;0.12;100.00;-18030.50;5029999;28;20579;-83
2023/03/11 00:33:15;;;;;;;9.40;5.80;;;;;;;0.15;100.00;-18031.34;5047304;28;20087;-83
2023/03/11 00:35:41;;;;;;;7.85;5.90;;;;;;;0.13;100.00;-18030.78;5039508;28;20377;-85
2023/03/11 00:38:11;;;;;;;7.35;4.90;;;;;;;0.17;100.00;-18032.03;5044525;28;20490;-83
2023/03/11 00:40:37;;;;;;;6.82;5.35;;;;;;;0.17;100.00;-18032.03;5032560;28;20072;-85
2023/03/11 00:43:03;;;;;;;5.75;4.05;;;;;;;0.19;100.00;-18032.56;5042198;28;20183;-83
2023/03/11 00:45:29;;;;;;;7.45;4.43;;;;;;;0.21;100.00;-18033.00;5044599;28;20045;-83
2023/03/11 00:47:55;;;;;;;11.02;5.63;;;;;;;0.19;100.00;-18032.56;5046280;28;20052;-85
2023/03/11 00:50:23;;;;;;;7.97;5.35;;;;;;;0.17;100.00;-18031.88;5043071;28;20029;-83
2023/03/11 00:52:50;;;;;;;6.25;4.82;;;;;;;0.20;100.00;-18032.72;5043826;28;20033;-84
2023/03/11 00:55:19;;;;;;;7.30;4.90;;;;;;;0.22;100.00;-18033.28;5039958;28;20036;-84
2023/03/11 00:57:44;;;;;;;7.47;5.40;;;;;;;0.22;100.00;-18033.41;5046232;28;20040;-83
2023/03/11 01:00:19;;;;;;;6.30;4.07;;;;;;;0.17;100.00;-18031.88;5046980;28;20032;-83
2023/03/11 01:02:45;;;;;;;8.85;5.30;;;;;;;0.11;100.00;-18030.34;5021306;28;20049;-82
2023/03/11 01:05:10;;;;;;;7.88;4.78;;;;;;;0.13;100.00;-18030.78;5043642;28;20063;-84
2023/03/11 01:07:36;;;;;;;6.00;4.55;;;;;;;0.15;100.00;-18031.47;5046963;28;20094;-84
2023/03/11 01:10:02;;;;;;;7.90;4.47;;;;;;;0.12;100.00;-18030.50;5045176;28;20031;-84
2023/03/11 01:12:28;;;;;;;7.95;4.88;;;;;;;0.10;100.00;-18030.09;5039938;28;20427;-83
2023/03/11 01:14:53;;;;;;;9.00;5.07;;;;;;;0.06;100.00;-18028.84;5036029;28;20038;-85
2023/03/11 01:17:20;;;;;;;9.73;5.15;;;;;;;-0.01;100.00;-18027.16;5043471;28;20515;-86
2023/03/11 01:19:46;;;;;;;5.85;4.88;;;;;;;0.01;100.00;-18027.44;5024061;28;20094;-85
2023/03/11 01:22:12;;;;;;;8.45;5.07;;;;;;;0.03;100.00;-18028.16;5046193;28;20208;-84
2023/03/11 01:24:37;;;;;;;7.93;5.68;;;;;;;-0.02;100.00;-18026.75;5051944;28;20033;-84
2023/03/11 01:27:03;;;;;;;8.68;5.47;;;;;;;-0.04;100.00;-18026.19;5049734;28;20036;-84
2023/03/11 01:29:28;;;;;;;6.57;3.95;;;;;;;-0.01;100.00;-18027.16;5040193;28;20352;-83
2023/03/11 01:31:53;;;;;;;8.77;4.72;;;;;;;-0.01;100.00;-18027.03;5040887;28;20128;-83
2023/03/11 01:34:19;;;;;;;6.65;4.50;;;;;;;-0.02;100.00;-18026.75;5038305;28;20186;-84
2023/03/11 01:36:44;;;;;;;6.05;3.80;;;;;;;0.02;100.00;-18027.72;5044425;28;20045;-85
2023/03/11 01:39:10;;;;;;;8.68;4.53;;;;;;;0.01;100.00;-18027.59;5044466;28;20067;-84
2023/03/11 01:41:35;;;;;;;6.78;4.63;;;;;;;0.02;100.00;-18027.72;5031356;28;20549;-84
2023/03/11 01:44:02;;;;;;;7.97;4.25;;;;;;;0.03;100.00;-18028.16;5041311;28;20044;-84
2023/03/11 01:46:58;;;;;;;8.38;4.50;;;;;;;0.04;100.00;-18028.41;5036454;28;20123;-85
2023/03/11 01:49:24;;;;;;;7.38;4.40;;;;;;;0.06;100.00;-18028.97;5045281;28;20033;-85
2023/03/11 01:51:53;;;;;;;6.70;4.30;;;;;;;0.08;100.00;-18029.38;5041184;28;20045;-84
2023/03/11 01:54:22;;;;;;;10.48;3.70;;;;;;;0.10;100.00;-18029.94;5045324;28;20480;-84
2023/03/11 01:56:49;;;;;;;6.90;3.78;;;;;;;0.12;100.00;-18030.63;5046902;28;20033;-85
2023/03/11 01:59:21;;;;;;;7.50;4.45;;;;;;;0.18;100.00;-18032.31;5028594;28;20053;-85
2023/03/11 02:01:58;;;;;;;9.85;4.10;;;;;;;0.19;100.00;-18032.44;5034521;28;20458;-84
2023/03/11 02:04:23;;;;;;;6.20;3.40;;;;;;;0.20;100.00;-18032.84;5045545;28;20076;-84
2023/03/11 02:06:50;;;;;;;9.23;4.00;;;;;;;0.21;100.00;-18033.13;5057991;28;20065;-84
2023/03/11 02:09:15;;;;;;;7.72;3.88;;;;;;;0.21;100.00;-18033.00;5020088;28;20037;-83
2023/03/11 02:11:40;;;;;;;7.97;3.50;;;;;;;0.19;100.00;-18032.44;5046241;28;20044;-84
2023/03/11 02:14:07;;;;;;;9.10;4.20;;;;;;;0.21;100.00;-18033.00;5048673;28;20098;-84
2023/03/11 02:16:33;;;;;;;11.55;4.45;;;;;;;0.26;100.00;-18034.38;5050025;28;20044;-85
2023/03/11 02:19:11;;;;;;;7.75;3.83;;;;;;;0.20;100.00;-18032.84;5043129;28;20467;-84
2023/03/11 02:21:36;;;;;;;9.25;4.20;;;;;;;0.21;100.00;-18033.00;5052723;28;20043;-85
2023/03/11 02:24:16;;;;;;;7.72;3.70;;;;;;;0.19;100.00;-18032.44;5058125;28;20037;-86
2023/03/11 02:27:19;;;;;;;10.75;4.88;;;;;;;0.17;100.00;-18031.88;5056611;28;20113;-85
2023/03/11 02:29:48;;;;;;;6.32;3.90;;;;;;;0.14;100.00;-18031.06;5044780;28;20124;-85
2023/03/11 02:32:15;;;;;;;7.68;4.72;;;;;;;0.15;100.00;-18031.34;5051885;28;20029;-85
2023/03/11 02:34:40;;;;;;;10.48;3.88;;;;;;;0.15;100.00;-18031.34;5042510;28;20819;-85
2023/03/11 02:37:08;;;;;;;12.52;3.80;;;;;;;0.17;100.00;-18031.88;5047137;28;20061;-83
2023/03/11 02:39:39;;;;;;;6.28;3.15;;;;;;;0.16;100.00;-18031.75;5038017;28;20052;-82
2023/03/11 02:42:11;;;;;;;7.47;4.10;;;;;;;0.17;100.00;-18032.03;5045601;28;20519;-83
2023/03/11 02:44:38;;;;;;;7.72;3.95;;;;;;;0.13;100.00;-18030.91;5026414;28;20401;-82
2023/03/11 02:47:03;;;;;;;11.73;4.43;;;;;;;0.07;100.00;-18029.25;5043267;28;20437;-83
2023/03/11 02:49:30;;;;;;;7.25;4.03;;;;;;;0.10;100.00;-18029.94;5034045;28;20126;-82
2023/03/11 02:51:55;;;;;;;9.18;3.97;;;;;;;0.11;100.00;-18030.34;5049364;28;20037;-82
2023/03/11 02:54:20;;;;;;;7.00;3.63;;;;;;;0.09;100.00;-18029.81;5045466;28;20056;-83
2023/03/11 02:56:46;;;;;;;8.85;4.07;;;;;;;0.06;100.00;-18028.84;5026660;28;20041;-83
2023/03/11 02:59:11;;;;;;;10.32;4.82;;;;;;;0.04;100.00;-18028.41;5051412;28;20090;-83
2023/03/11 03:01:36;;;;;;;9.70;3.47;;;;;;;0.04;100.00;-18028.41;5036675;28;20041;-82
2023/03/11 03:04:02;;;;;;;8.25;3.58;;;;;;;0.03;100.00;-18028.16;5045501;28;20040;-83
2023/03/11 03:06:27;;;;;;;13.32;3.63;;;;;;;0.04;100.00;-18028.28;5050066;28;20041;-83
2023/03/11 03:08:53;;;;;;;8.70;3.78;;;;;;;0.01;100.00;-18027.59;5047455;28;20106;-83
2023/03/11 03:11:19;;;;;;;7.88;3.67;;;;;;;-0.03;100.00;-18026.47;5056257;28;20035;-82
2023/03/11 03:13:45;;;;;;;5.60;3.30;;;;;;;-0.07;100.00;-18025.50;5025088;28;20942;-83
2023/03/11 03:16:10;;;;;;;7.63;3.53;;;;;;;-0.06;100.00;-18025.66;5042655;28;20039;-82
2023/03/11 03:18:36;;;;;;;9.50;4.07;;;;;;;0.01;100.00;-18027.59;5049375;28;20209;-84
2023/03/11 03:21:01;;;;;;;13.65;3.55;;;;;;;-0.01;100.00;-18027.03;5045942;28;20036;-83
2023/03/11 03:23:27;;;;;;;6.57;3.25;;;;;;;0.01;100.00;-18027.59;5047460;28;20078;-83
2023/03/11 03:25:52;;;;;;;10.07;4.00;;;;;;;-0.03;100.00;-18026.47;5050262;28;20040;-82
2023/03/11 03:28:18;;;;;;;9.25;4.40;;;;;;;0.01;100.00;-18027.59;5047107;28;20033;-82
2023/03/11 03:30:43;;;;;;;7.38;3.03;;;;;;;-0.01;100.00;-18027.03;5047674;28;20084;-82
2023/03/11 03:33:08;;;;;;;13.73;4.05;;;;;;;-0.05;100.00;-18025.94;5037586;28;20091;-83
2023/03/11 03:35:34;;;;;;;11.75;3.72;;;;;;;-0.07;100.00;-18025.50;5035446;28;20049;-83
2023/03/11 03:38:00;;;;;;;9.95;4.00;;;;;;;-0.05;100.00;-18026.06;5048670;28;20116;-84
2023/03/11 03:40:26;;;;;;;11.15;4.13;;;;;;;-0.07;100.00;-18025.50;5045321;28;20043;-83
2023/03/11 03:42:51;;;;;;;7.60;4.00;;;;;;;-0.06;100.00;-18025.66;5047931;28;20044;-84
2023/03/11 03:45:16;;;;;;;10.23;4.10;;;;;;;-0.09;100.00;-18024.94;5042670;28;20073;-83
2023/03/11 03:47:42;;;;;;;7.03;3.30;;;;;;;-0.10;100.00;-18024.53;5046296;28;20043;-83
2023/03/11 03:50:10;;;;;;;9.82;4.10;;;;;;;-0.17;100.00;-18022.75;5046281;28;20369;-83
2023/03/11 03:52:37;;;;;;;10.30;3.78;;;;;;;-0.15;100.00;-18023.16;5056466;28;20055;-83
2023/03/11 03:55:03;;;;;;;8.30;4.20;;;;;;;-0.18;100.00;-18022.31;5045061;28;20063;-87
2023/03/11 03:57:29;;;;;;;6.32;4.35;;;;;;;-0.20;100.00;-18021.75;5041579;28;20042;-85
2023/03/11 03:59:54;;;;;;;10.55;3.17;;;;;;;-0.18;100.00;-18022.31;5063662;22;20500;-87
2023/03/11 04:02:20;;;;;;;11.00;4.20;;;;;;;-0.15;100.00;-18023.16;5064168;28;20045;-87
2023/03/11 04:04:45;;;;;;;8.45;3.20;;;;;;;-0.14;100.00;-18023.44;5046261;28;20094;-87
2023/03/11 04:07:11;;;;;;;8.02;3.05;;;;;;;-0.20;100.00;-18021.75;5044547;28;20045;-86
2023/03/11 04:09:41;;;;;;;8.77;3.17;;;;;;;-0.15;100.00;-18023.16;5057711;28;20036;-87
2023/03/11 04:12:07;;;;;;;9.98;3.50;;;;;;;-0.14;100.00;-18023.56;5057906;28;20035;-87
2023/03/11 04:14:32;;;;;;;9.30;3.67;;;;;;;-0.16;100.00;-18023.00;5041341;28;20041;-86
2023/03/11 04:16:58;;;;;;;8.93;3.00;;;;;;;-0.15;100.00;-18023.16;5060568;28;20047;-90
2023/03/11 04:19:24;;;;;;;11.10;5.00;;;;;;;-0.15;100.00;-18023.16;5062339;28;20060;-87
2023/03/11 04:21:50;;;;;;;10.38;3.88;;;;;;;-0.12;100.00;-18023.97;5022820;28;20069;-87
2023/03/11 04:24:17;;;;;;;8.48;3.72;;;;;;;-0.15;100.00;-18023.28;5017733;28;20049;-87
2023/03/11 04:26:43;;;;;;;7.05;2.60;;;;;;;-0.20;100.00;-18021.91;5004903;28;20107;-87
2023/03/11 04:29:08;;;;;;;5.80;2.75;;;;;;;-0.14;100.00;-18023.44;5007048;28;20073;-87
2023/03/11 04:31:36;;;;;;;10.73;3.08;;;;;;;-0.15;100.00;-18023.28;5012349;28;20041;-87
2023/03/11 04:34:02;;;;;;;4.95;3.13;;;;;;;-0.15;100.00;-18023.28;5019950;28;20060;-87
2023/03/11 04:36:27;;;;;;;9.77;3.40;;;;;;;-0.12;100.00;-18023.97;5019337;28;20500;-87
2023/03/11 04:38:55;;;;;;;7.32;3.00;;;;;;;-0.13;100.00;-18023.72;5002268;28;20188;-88
2023/03/11 04:41:21;;;;;;;9.30;3.08;;;;;;;-0.18;100.00;-18022.47;5019369;28;20041;-87
2023/03/11 04:43:46;;;;;;;7.55;3.03;;;;;;;-0.13;100.00;-18023.84;5022940;28;20064;-87
2023/03/11 04:46:11;;;;;;;11.27;3.55;;;;;;;-0.13;100.00;-18023.72;5011233;28;20044;-87
2023/03/11 04:48:37;;;;;;;9.20;2.90;;;;;;;-0.17;100.00;-18022.75;5056809;28;20080;-87
2023/03/11 04:51:03;;;;;;;7.35;2.28;;;;;;;-0.20;100.00;-18021.75;5051913;28;20037;-88
2023/03/11 04:53:28;;;;;;;6.60;2.90;;;;;;;-0.21;100.00;-18021.63;5045634;28;20055;-87
2023/03/11 04:55:56;;;;;;;5.05;2.38;;;;;;;-0.25;100.00;-18020.66;5053250;28;20551;-88
2023/03/11 04:58:22;;;;;;;10.05;2.88;;;;;;;-0.25;100.00;-18020.66;5060747;28;20129;-87
2023/03/11 05:00:47;;;;;;;8.82;2.85;;;;;;;-0.26;100.00;-18020.25;5059671;28;20045;-87
2023/03/11 05:03:13;;;;;;;6.25;2.63;;;;;;;-0.31;100.00;-18018.84;5057155;28;20511;-85
2023/03/11 05:05:41;;;;;;;5.78;2.22;;;;;;;-0.35;100.00;-18017.75;5037990;28;20132;-87
2023/03/11 05:08:09;;;;;;;7.93;2.85;;;;;;;-0.40;100.00;-18016.38;5060603;28;20106;-87
2023/03/11 05:10:35;;;;;;;13.23;2.95;;;;;;;-0.38;100.00;-18017.06;5044255;28;20479;-87
2023/03/11 05:13:01;;;;;;;8.98;2.55;;;;;;;-0.41;100.00;-18016.09;5054799;28;20501;-87
2023/03/11 05:15:27;;;;;;;5.82;3.20;;;;;;;-0.43;100.00;-18015.66;5052163;28;20091;-88
2023/03/11 05:17:53;;;;;;;11.93;3.15;;;;;;;-0.42;100.00;-18015.94;5057101;28;20048;-87
2023/03/11 05:20:21;;;;;;;11.07;3.05;;;;;;;-0.44;100.00;-18015.25;5041288;28;20032;-87
2023/03/11 05:22:47;;;;;;;7.97;2.50;;;;;;;-0.47;100.00;-18014.69;5053761;28;20044;-87
2023/03/11 05:25:13;;;;;;;9.48;3.25;;;;;;;-0.49;100.00;-18014.00;5049418;28;20037;-87
2023/03/11 05:27:38;;;;;;;5.47;3.15;;;;;;;-0.54;100.00;-18012.63;5043732;28;20037;-87
2023/03/11 05:30:04;;;;;;;7.50;3.85;;;;;;;-0.58;100.00;-18011.66;5057447;28;20053;-87
2023/03/11 05:32:30;;;;;;;8.15;3.70;;;;;;;-0.52;100.00;-18013.19;5051307;28;20044;-87
2023/03/11 05:34:58;;;;;;;7.82;2.90;;;;;;;-0.57;100.00;-18011.94;5048542;28;20556;-89
2023/03/11 05:37:24;;;;;;;12.38;2.97;;;;;;;-0.58;100.00;-18011.66;5070861;28;20041;-87
2023/03/11 05:39:51;;;;;;;6.50;2.42;;;;;;;-0.60;100.00;-18010.97;5036663;28;20403;-87
2023/03/11 05:42:16;;;;;;;8.00;3.20;;;;;;;-0.63;100.00;-18010.25;5057863;28;20040;-87
2023/03/11 05:44:42;;;;;;;5.18;3.05;;;;;;;-0.66;100.00;-18009.28;5045061;28;20044;-87
2023/03/11 05:47:07;;;;;;;8.52;3.90;;;;;;;-0.65;100.00;-18009.56;5047885;28;20040;-87
2023/03/11 05:49:33;;;;;;;12.95;5.53;;;;;;;-0.64;100.00;-18009.84;5049742;28;20652;-89
2023/03/11 05:51:58;;;;;;;13.43;7.00;;;;;;;-0.67;100.00;-18009.16;5052790;28;20966;-87
2023/03/11 05:54:23;;;;;;;16.25;9.45;;;;;;;-0.66;100.00;-18009.28;5049549;28;20152;-88
2023/03/11 05:56:49;;;;;;;13.73;6.63;;;;;;;-0.66;100.00;-18009.28;5060958;28;20129;-88
2023/03/11 05:59:16;;;;;;;12.65;8.43;;;;;;;-0.67;100.00;-18009.16;5060037;28;20043;-87
2023/03/11 06:01:43;;;;;;;12.25;7.07;;;;;;;-0.66;100.00;-18009.44;5058343;28;20029;-87
2023/03/11 06:04:08;;;;;;;9.23;4.82;;;;;;;-0.68;100.00;-18009.00;5049531;28;20034;-88
2023/03/11 06:06:44;;;;;;;15.88;8.75;;;;;;;-0.66;100.00;-18009.28;5062253;28;20048;-87
2023/03/11 06:09:21;;;;;;;14.80;9.45;;;;;;;-0.69;100.00;-18008.75;5000994;28;20120;-87
2023/03/11 06:11:57;;;;;;;14.38;9.20;;;;;;;-0.74;100.00;-18007.34;4989942;28;20133;-88
2023/03/11 06:14:23;;;;;;;15.93;7.75;;;;;;;-0.71;100.00;-18008.19;4947282;28;20079;-89
2023/03/11 06:16:48;;;;;;;15.07;7.68;;;;;;;-0.71;100.00;-18008.19;4988504;28;20129;-88
2023/03/11 06:19:14;;;;;;;12.48;7.82;;;;;;;-0.74;100.00;-18007.34;4972327;28;20327;-88
2023/03/11 06:21:39;;;;;;;14.85;7.07;;;;;;;-0.73;100.00;-18007.63;4988393;28;20069;-88
2023/03/11 06:24:05;;;;;;;14.80;7.50;;;;;;;-0.75;100.00;-18006.94;4988589;28;20137;-88
2023/03/11 06:26:31;;;;;;;18.67;9.05;;;;;;;-0.77;100.00;-18006.38;4977185;28;20038;-88
2023/03/11 06:28:56;;;;;;;16.05;8.98;;;;;;;-0.75;100.00;-18007.06;4988315;28;20498;-87
2023/03/11 06:31:25;;;;;;;23.67;10.23;;;;;;;-0.78;100.00;-18006.09;4987460;28;20042;-88
2023/03/11 06:33:52;;;;;;;15.82;7.20;;;;;;;-0.78;100.00;-18006.09;4987922;28;20038;-88
2023/03/11 06:36:19;;;;;;;19.45;7.20;;;;;;;-0.79;100.00;-18005.97;4988381;28;20042;-88
2023/03/11 06:38:45;;;;;;;24.20;10.32;;;;;;;-0.81;100.00;-18005.28;4988493;28;20042;-87
2023/03/11 06:41:11;;;;;;;17.85;7.07;;;;;;;-0.83;100.00;-18004.84;4987428;28;20046;-87
2023/03/11 06:43:37;;;;;;;13.60;5.97;;;;;;;-0.86;100.00;-18004.03;5012902;28;20079;-88
2023/03/11 06:46:11;;;;;;;16.52;7.28;;;;;;;-0.87;100.00;-18003.59;5062158;28;20119;-88
2023/03/11 06:48:37;;;;;;;19.05;8.77;;;;;;;-0.81;100.00;-18005.41;5051307;28;20118;-87
2023/03/11 06:51:03;;;;;;;17.25;8.52;;;;;;;-0.81;100.00;-18005.28;5051849;28;20499;-88
2023/03/11 06:53:29;;;;;;;25.00;10.57;;;;;;;-0.83;100.00;-18004.72;5045772;28;20071;-88
2023/03/11 06:56:02;;;;;;;25.25;10.57;;;;;;;-0.78;100.00;-18006.09;5023479;28;20038;-88
2023/03/11 06:58:50;;;;;;;18.77;9.90;;;;;;;-0.77;100.00;-18006.53;5016964;28;20096;-88
2023/03/11 07:01:23;;;;;;;13.07;5.13;;;;;;;-0.77;100.00;-18006.53;5003664;28;20084;-87
2023/03/11 07:03:49;;;;;;;7.85;4.22;;;;;;;-0.75;100.00;-18007.06;5015434;28;20053;-88
2023/03/11 07:06:20;;;;;;;7.85;4.95;;;;;;;-0.70;100.00;-18008.31;5012036;28;20128;-87
2023/03/11 07:08:47;;;;;;;13.15;5.68;;;;;;;-0.68;100.00;-18009.00;5005495;28;20742;-88
2023/03/11 07:11:18;;;;;;;15.60;5.00;;;;;;;-0.65;100.00;-18009.56;5025573;28;20072;-89
2023/03/11 07:13:44;;;;;;;12.02;5.63;;;;;;;-0.62;100.00;-18010.53;5017771;28;20516;-88
2023/03/11 07:16:11;;;;;;;6.97;4.25;;;;;;;-0.59;100.00;-18011.22;5003243;28;20124;-87
2023/03/11 07:18:36;;;;;;;8.48;4.65;;;;;;;-0.54;100.00;-18012.63;5015302;28;20042;-87
2023/03/11 07:21:03;;;;;;;8.18;4.28;;;;;;;-0.52;100.00;-18013.19;5027518;28;20059;-87
2023/03/11 07:23:29;;;;;;;9.88;4.90;;;;;;;-0.50;100.00;-18013.88;5055451;28;20040;-87
2023/03/11 07:25:54;;;;;;;9.07;3.97;;;;;;;-0.48;100.00;-18014.28;5058313;28;20564;-88
2023/03/11 07:28:21;;;;;;;7.63;3.50;;;;;;;-0.44;100.00;-18015.41;5038821;28;20124;-87
2023/03/11 07:30:47;;;;;;;7.15;2.72;;;;;;;-0.39;100.00;-18016.63;5058633;28;20495;-87
2023/03/11 07:33:13;;;;;;;9.57;3.28;;;;;;;-0.35;100.00;-18017.88;5058462;28;20102;-87
2023/03/11 07:35:38;;;;;;;8.07;3.38;;;;;;;-0.31;100.00;-18018.84;5061709;28;20036;-87
2023/03/11 07:38:07;;;;;;;6.25;3.17;;;;;;;-0.24;100.00;-18020.94;5047026;28;20135;-88
2023/03/11 07:40:33;;;;;;;6.35;2.80;;;;;;;-0.22;100.00;-18021.22;5038921;28;20044;-87
2023/03/11 07:42:58;;;;;;;6.35;3.17;;;;;;;-0.24;100.00;-18020.94;5057243;28;20048;-89
2023/03/11 07:45:24;;;;;;;7.82;3.00;;;;;;;-0.17;100.00;-18022.59;5061993;28;20737;-88
2023/03/11 07:47:49;;;;;;;8.57;3.95;;;;;;;-0.14;100.00;-18023.44;5040508;28;20381;-87
2023/03/11 07:50:16;;;;;;;7.82;2.28;;;;;;;-0.12;100.00;-18023.97;5063943;28;20770;-87
2023/03/11 07:52:42;;;;;;;8.52;2.47;;;;;;;-0.12;100.00;-18023.97;5041791;28;20052;-87
2023/03/11 07:55:08;;;;;;;9.10;3.15;;;;;;;-0.09;100.00;-18024.94;5059955;28;20484;-89
2023/03/11 07:57:33;;;;;;;6.68;2.78;;;;;;;-0.04;100.00;-18026.19;5057195;28;20131;-87
2023/03/11 08:00:02;;;;;;;8.60;2.72;;;;;;;0.00;100.00;-18027.31;5046351;28;20654;-87
2023/03/11 08:02:27;;;;;;;;;;;;;;;0.06;100.00;-18028.97;5049089;28;20049;-86
2023/03/11 08:04:54;;;;;;;8.45;2.50;;;;;;;0.03;100.00;-18028.00;5060355;28;20607;-89
2023/03/11 08:07:23;;;;;;;4.78;2.50;;;;;;;0.03;100.00;-18028.00;5055689;28;20036;-89
2023/03/11 08:09:48;;;;;;;5.13;2.75;;;;;;;0.11;100.00;-18030.34;5058705;28;20083;-88
2023/03/11 08:12:14;;;;;;;8.05;2.75;;;;;;;0.10;100.00;-18030.09;5062166;28;20068;-87
2023/03/11 08:14:43;;;;;;;7.47;2.70;;;;;;;0.23;100.00;-18033.53;5060764;28;20028;-87
2023/03/11 08:17:09;;;;;;;7.10;2.55;;;;;;;0.19;100.00;-18032.44;5060693;28;20085;-87
2023/03/11 08:19:35;;;;;;;4.72;2.50;;;;;;;0.23;100.00;-18033.53;5052752;28;20132;-88
2023/03/11 08:22:02;;;;;;;11.27;5.18;;;;;;;0.37;100.00;-18037.28;5056954;28;20547;-87
2023/03/11 08:24:27;;;;;;;8.25;3.47;;;;;;;0.39;100.00;-18037.97;5059486;28;20040;-87
2023/03/11 08:26:54;;;;;;;7.40;3.22;;;;;;;0.44;100.00;-18039.22;5044987;28;20052;-89
2023/03/11 08:29:19;;;;;;;9.38;2.50;;;;;;;0.39;100.00;-18037.84;5052626;28;20047;-89
2023/03/11 08:31:45;;;;;;;6.60;2.42;;;;;;;0.41;100.00;-18038.53;5055014;28;20056;-88
2023/03/11 08:34:11;;;;;;;6.88;2.58;;;;;;;0.48;100.00;-18040.19;5041112;28;20135;-87
2023/03/11 08:36:36;;;;;;;4.20;2.22;;;;;;;0.52;100.00;-18041.44;5018458;28;20614;-87
2023/03/11 08:39:02;;;;;;;9.85;4.00;;;;;;;0.60;100.00;-18043.50;5037378;28;20078;-88
2023/03/11 08:41:28;;;;;;;13.60;6.93;;;;;;;0.64;100.00;-18044.63;5042855;28;20040;-87
2023/03/11 08:43:53;;;;;;;6.55;3.92;;;;;;;0.67;100.00;-18045.47;5036787;28;20808;-89
2023/03/11 08:46:21;;;;;;;15.30;8.77;;;;;;;0.69;100.00;-18046.00;5052925;28;20048;-88
2023/03/11 08:48:47;;;;;;;8.82;4.35;;;;;;;0.83;100.00;-18049.88;5053745;28;20098;-88
2023/03/11 08:51:13;;;;;;;10.65;3.58;;;;;;;0.87;100.00;-18050.84;5052234;28;21491;-88
2023/03/11 08:53:39;;;;;;;16.90;5.68;;;;;;;0.90;100.00;-18051.81;5046159;28;20044;-87
2023/03/11 08:56:08;;;;;;;22.55;5.10;;;;;;;0.96;100.00;-18053.22;5034132;28;20088;-90
2023/03/11 08:58:33;;;;;;;20.13;6.63;;;;;;;1.00;100.00;-18054.31;4983610;28;20041;-88
2023/03/11 09:00:59;;;;;;;19.67;5.30;;;;;;;0.98;100.00;-18053.91;5012267;28;20439;-88
2023/03/11 09:03:24;;;;;;;16.48;3.95;;;;;;;1.04;100.00;-18055.56;5011375;28;20052;-89
2023/03/11 09:05:56;;;;;;;6.03;2.22;;;;;;;0.99;100.00;-18054.03;5004463;28;20049;-87
2023/03/11 09:08:22;;;;;;;11.85;3.20;;;;;;;1.13;100.00;-18058.06;5009437;28;21786;-88
2023/03/11 09:10:47;;;;;;;7.32;2.85;;;;;;;1.17;100.00;-18059.03;5012671;28;20052;-88
2023/03/11 09:13:13;;;;;;;5.15;2.45;;;;;;;1.21;100.00;-18060.00;4993785;28;20132;-89
2023/03/11 09:15:38;;;;;;;4.22;2.63;;;;;;;1.31;100.00;-18062.75;5012678;28;20042;-89
2023/03/11 09:18:04;;;;;;;7.68;2.33;;;;;;;1.28;100.00;-18062.06;4998725;28;20050;-87
2023/03/11 09:20:30;;;;;;;5.43;2.00;;;;;;;1.44;100.00;-18066.22;4974601;28;20072;-87
2023/03/11 09:22:58;;;;;;;6.55;2.28;;;;;;;1.42;100.00;-18065.81;4996463;28;20065;-88
2023/03/11 09:25:26;;;;;;;10.30;2.80;;;;;;;1.45;100.00;-18066.63;4997200;28;20103;-88
2023/03/11 09:27:51;;;;;;;5.82;2.28;;;;;;;1.51;100.00;-18068.16;5000822;28;20048;-88
2023/03/11 09:30:17;;;;;;;6.65;2.28;;;;;;;1.60;100.00;-18070.50;5055000;28;20052;-89
2023/03/11 09:32:42;;;;;;;6.45;2.20;;;;;;;1.75;100.00;-18074.66;5052582;28;20043;-89
2023/03/11 09:35:10;;;;;;;4.93;1.70;;;;;;;1.80;100.00;-18076.19;5057717;28;20063;-89
2023/03/11 09:37:36;;;;;;;6.10;2.33;;;;;;;1.82;100.00;-18076.47;5038446;28;20051;-89
2023/03/11 09:40:02;;;;;;;5.15;1.55;;;;;;;1.82;100.00;-18076.59;5041459;28;20044;-89
2023/03/11 09:42:56;;;;;;;6.45;1.95;;;;;;;1.91;100.00;-18079.09;5046199;28;20044;-89
2023/03/11 09:45:28;;;;;;;6.32;1.17;;;;;;;1.87;100.00;-18077.84;5030295;28;20041;-89
2023/03/11 09:48:11;;;;;;;4.72;1.60;;;;;;;1.91;100.00;-18079.09;5054897;28;20521;-91
2023/03/11 09:51:12;;;;;;;7.72;2.50;;;;;;;1.96;100.00;-18080.47;5041340;28;20044;-88
2023/03/11 09:53:41;;;;;;;9.88;2.92;;;;;;;1.96;100.00;-18080.47;5045176;28;20179;-88
2023/03/11 09:56:10;;;;;;;4.47;1.40;;;;;;;1.97;100.00;-18080.75;5054761;28;20049;-89
2023/03/11 09:58:55;;;;;;;;;;;;;;;1.96;100.00;-18080.47;5043305;28;20524;-88
2023/03/11 10:01:25;;;;;;;7.65;1.60;;;;;;;2.04;100.00;-18082.56;5034902;28;19924;-88
2023/03/11 10:03:54;;;;;;;2.75;1.17;;;;;;;2.05;100.00;-18082.84;5036928;28;20573;-89
2023/03/11 10:06:27;;;;;;;4.88;1.65;;;;;;;2.16;100.00;-18085.75;5041568;28;20036;-89
2023/03/11 10:09:34;;;;;;;4.57;1.15;;;;;;;2.33;100.00;-18090.28;5042721;28;20097;-89
2023/03/11 10:12:25;;;;;;;2.13;1.10;;;;;;;2.33;100.00;-18090.44;5039186;28;20091;-89
2023/03/11 10:15:15;;;;;;;5.38;1.52;;;;;;;2.34;100.00;-18090.56;5057311;28;20068;-89
2023/03/11 10:18:03;;;;;;;3.83;1.33;;;;;;;2.44;100.00;-18093.47;5047163;28;20041;-89
2023/03/11 10:20:31;;;;;;;3.70;1.27;;;;;;;2.48;100.00;-18094.44;5032683;28;20055;-89
2023/03/11 10:23:17;;;;;;;3.28;0.90;;;;;;;2.64;100.00;-18098.88;5058161;28;20053;-88
2023/03/11 10:26:12;;;;;;;4.38;1.10;;;;;;;2.72;100.00;-18100.94;5053765;28;20050;-89
2023/03/11 10:28:50;;;;;;;3.78;1.17;;;;;;;2.70;100.00;-18100.53;5056141;28;20094;-89
2023/03/11 10:31:22;;;;;;;2.95;1.38;;;;;;;2.77;100.00;-18102.19;5042496;28;20267;-88
2023/03/11 10:33:50;;;;;;;6.65;1.77;;;;;;;2.90;100.00;-18105.94;5028977;28;20039;-90
2023/03/11 10:36:22;;;;;;;4.13;1.30;;;;;;;3.02;100.00;-18108.97;5044834;28;20040;-88
2023/03/11 10:38:51;;;;;;;5.20;1.70;;;;;;;3.10;100.00;-18111.31;5063987;28;20545;-88
2023/03/11 10:41:34;;;;;;;4.17;1.60;;;;;;;3.15;100.00;-18112.69;5066741;28;20169;-89
2023/03/11 10:44:18;;;;;;;4.88;1.10;;;;;;;3.10;100.00;-18111.31;5025007;28;20198;-91
2023/03/11 10:46:44;;;;;;;4.97;1.10;;;;;;;3.18;100.00;-18113.38;5066310;28;20098;-89
2023/03/11 10:49:15;;;;;;;3.13;1.10;;;;;;;3.13;100.00;-18112.00;5043365;28;20040;-89
2023/03/11 10:51:43;;;;;;;4.07;1.17;;;;;;;3.26;100.00;-18115.47;5056072;28;20052;-89
2023/03/11 10:54:21;;;;;;;4.07;1.25;;;;;;;3.27;100.00;-18115.88;5060880;28;20048;-89
2023/03/11 10:56:53;;;;;;;5.07;0.95;;;;;;;3.23;100.00;-18114.78;5061276;28;20614;-89
2023/03/11 10:59:26;;;;;;;4.30;1.45;;;;;;;3.26;100.00;-18115.59;5037025;28;20056;-88
2023/03/11 11:02:00;;;;;;;5.60;1.55;;;;;;;3.31;100.00;-18117.00;5054662;28;20068;-90
2023/03/11 11:04:33;;;;;;;4.68;0.90;;;;;;;3.35;100.00;-18118.09;5054925;28;20025;-90
2023/03/11 11:07:19;;;;;;;3.40;1.10;;;;;;;3.34;100.00;-18117.81;5053813;28;20137;-90
2023/03/11 11:09:45;;;;;;;5.03;0.77;;;;;;;3.43;100.00;-18120.16;5054437;28;20507;-89
2023/03/11 11:12:17;;;;;;;5.43;1.38;;;;;;;3.51;100.00;-18122.22;5055657;28;20046;-88
2023/03/11 11:14:48;;;;;;;3.85;1.00;;;;;;;3.47;100.00;-18121.28;5053404;28;20518;-91
2023/03/11 11:17:30;;;;;;;7.07;1.35;;;;;;;3.44;100.00;-18120.31;5041774;28;20044;-88
2023/03/11 11:19:57;;;;;;;4.07;1.20;;;;;;;3.59;100.00;-18124.44;5039430;28;20036;-88
2023/03/11 11:22:24;;;;;;;6.07;1.63;;;;;;;3.61;100.00;-18125.13;5056945;28;20572;-90
2023/03/11 11:24:52;;;;;;;3.95;1.00;;;;;;;3.72;100.00;-18128.03;5061258;28;20178;-89